createdAt,value
2022-12-08T00:00:26.346Z,28.87
2022-12-08T00:02:29.470Z,22.23
2022-12-08T00:04:53.544Z,22.87
2022-12-08T00:07:13.957Z,27.43
2022-12-08T00:09:22.300Z,19.67
2022-12-08T00:11:25.196Z,23.77
2022-12-08T00:13:28.099Z,22.80
2022-12-08T00:15:31.186Z,25.37
2022-12-08T00:17:34.127Z,20.27
2022-12-08T00:19:37.320Z,27.63
2022-12-08T00:21:40.596Z,29.50
2022-12-08T00:23:43.787Z,21.70
2022-12-08T00:25:48.380Z,24.13
2022-12-08T00:27:51.275Z,32.43
2022-12-08T00:29:54.351Z,25.83
2022-12-08T00:31:57.306Z,23.30
2022-12-08T00:34:00.613Z,24.93
2022-12-08T00:36:07.724Z,27.03
2022-12-08T00:38:10.780Z,25.50
2022-12-08T00:40:13.874Z,25.80
2022-12-08T00:42:17.387Z,28.90
2022-12-08T00:44:20.410Z,33.20
2022-12-08T00:46:23.386Z,27.10
2022-12-08T00:48:26.339Z,28.87
2022-12-08T00:50:29.297Z,25.20
2022-12-08T00:52:32.213Z,29.10
2022-12-08T00:54:35.555Z,29.07
2022-12-08T00:56:39.106Z,28.43
2022-12-08T00:58:43.525Z,30.77
2022-12-08T01:00:46.717Z,31.83
2022-12-08T01:02:49.985Z,29.97
2022-12-08T01:04:54.173Z,33.77
2022-12-08T01:06:57.181Z,46.27
2022-12-08T01:09:00.235Z,38.63
2022-12-08T01:11:04.619Z,29.10
2022-12-08T01:13:07.489Z,29.33
2022-12-08T01:15:12.252Z,30.53
2022-12-08T01:17:15.333Z,30.83
2022-12-08T01:19:18.465Z,30.50
2022-12-08T01:21:21.927Z,28.80
2022-12-08T01:23:24.899Z,29.60
2022-12-08T01:25:27.803Z,26.93
2022-12-08T01:27:30.788Z,26.83
2022-12-08T01:29:34.457Z,30.13
2022-12-08T01:31:39.467Z,31.10
2022-12-08T01:33:42.627Z,34.40
2022-12-08T01:35:45.479Z,26.60
2022-12-08T01:37:48.520Z,26.33
2022-12-08T01:39:51.351Z,28.03
2022-12-08T01:41:54.558Z,28.63
2022-12-08T01:44:00.099Z,26.40
2022-12-08T01:46:03.237Z,22.17
2022-12-08T01:48:12.239Z,25.53
2022-12-08T01:50:17.018Z,24.27
2022-12-08T01:52:24.978Z,24.40
2022-12-08T01:54:30.713Z,23.33
2022-12-08T01:56:37.734Z,27.60
2022-12-08T01:58:44.291Z,23.83
2022-12-08T02:00:48.845Z,21.50
2022-12-08T02:02:55.135Z,23.33
2022-12-08T02:04:59.599Z,23.53
2022-12-08T02:07:07.763Z,19.90
2022-12-08T02:09:11.184Z,26.83
2022-12-08T02:11:14.565Z,27.90
2022-12-08T02:13:19.274Z,21.00
2022-12-08T02:15:25.822Z,19.57
2022-12-08T02:17:41.551Z,21.23
2022-12-08T02:20:06.594Z,19.90
2022-12-08T02:22:12.300Z,20.57
2022-12-08T02:24:20.277Z,20.90
2022-12-08T02:27:04.185Z,26.23
2022-12-08T02:29:23.039Z,22.93
2022-12-08T02:31:34.778Z,20.47
2022-12-08T02:34:01.914Z,22.40
2022-12-08T02:36:08.478Z,21.60
2022-12-08T02:38:21.532Z,23.10
2022-12-08T02:40:27.253Z,18.47
2022-12-08T02:42:34.359Z,21.43
2022-12-08T02:44:41.164Z,20.77
2022-12-08T02:46:46.571Z,23.27
2022-12-08T02:48:49.997Z,24.27
2022-12-08T02:50:54.281Z,24.40
2022-12-08T02:52:57.339Z,25.37
2022-12-08T02:55:04.681Z,28.83
2022-12-08T02:57:18.145Z,19.33
2022-12-08T02:59:33.893Z,21.70
2022-12-08T03:01:49.940Z,22.80
2022-12-08T03:04:01.135Z,28.70
2022-12-08T03:06:12.997Z,20.77
2022-12-08T03:08:18.205Z,20.23
2022-12-08T03:10:27.129Z,24.17
2022-12-08T03:12:33.064Z,20.10
2022-12-08T03:14:36.104Z,19.40
2022-12-08T03:16:40.406Z,21.47
2022-12-08T03:18:49.492Z,20.40
2022-12-08T03:20:52.911Z,23.50
2022-12-08T03:22:59.934Z,20.67
2022-12-08T03:25:03.350Z,20.03
2022-12-08T03:27:09.860Z,19.33
2022-12-08T03:29:13.398Z,21.07
2022-12-08T03:31:18.236Z,19.77
2022-12-08T03:33:24.972Z,23.83
2022-12-08T03:35:30.960Z,19.60
2022-12-08T03:37:36.270Z,20.17
2022-12-08T03:39:40.509Z,16.93
2022-12-08T03:41:43.480Z,23.13
2022-12-08T03:43:47.071Z,22.83
2022-12-08T03:45:49.925Z,19.33
2022-12-08T03:47:53.175Z,18.30
2022-12-08T03:49:55.990Z,21.70
2022-12-08T03:51:58.865Z,25.47
2022-12-08T03:54:01.717Z,18.10
2022-12-08T03:56:07.778Z,19.07
2022-12-08T03:58:10.673Z,18.23
2022-12-08T04:00:17.356Z,16.97
2022-12-08T04:02:20.508Z,20.70
2022-12-08T04:04:23.603Z,20.33
2022-12-08T04:06:27.060Z,19.13
2022-12-08T04:08:30.133Z,19.80
2022-12-08T04:10:33.042Z,18.23
2022-12-08T04:12:37.465Z,18.67
2022-12-08T04:14:40.323Z,18.13
2022-12-08T04:16:43.179Z,18.40
2022-12-08T04:18:46.343Z,17.73
2022-12-08T04:20:49.256Z,19.30
2022-12-08T04:22:52.209Z,19.87
2022-12-08T04:24:55.465Z,19.30
2022-12-08T04:26:58.628Z,19.80
2022-12-08T04:29:02.854Z,21.57
2022-12-08T04:31:06.437Z,18.03
2022-12-08T04:33:09.506Z,17.97
2022-12-08T04:35:12.388Z,16.23
2022-12-08T04:37:15.298Z,16.37
2022-12-08T04:39:18.554Z,18.53
2022-12-08T04:41:21.381Z,19.50
2022-12-08T04:43:24.402Z,19.20
2022-12-08T04:45:36.180Z,17.53
2022-12-08T04:47:40.491Z,20.63
2022-12-08T04:49:43.359Z,20.03
2022-12-08T04:51:46.247Z,26.03
2022-12-08T04:53:49.463Z,19.73
2022-12-08T04:55:52.461Z,24.47
2022-12-08T04:57:55.523Z,19.00
2022-12-08T04:59:58.382Z,23.40
2022-12-08T05:02:03.185Z,18.00
2022-12-08T05:04:06.192Z,23.30
2022-12-08T05:06:10.622Z,17.93
2022-12-08T05:08:14.088Z,19.40
2022-12-08T05:10:17.220Z,17.30
2022-12-08T05:12:20.029Z,18.10
2022-12-08T05:14:22.946Z,19.00
2022-12-08T05:16:25.842Z,21.47
2022-12-08T05:18:30.342Z,15.50
2022-12-08T05:20:33.191Z,17.80
2022-12-08T05:22:36.099Z,20.87
2022-12-08T05:24:44.019Z,19.20
2022-12-08T05:26:50.090Z,17.70
2022-12-08T05:28:52.937Z,18.67
2022-12-08T05:30:55.978Z,16.43
2022-12-08T05:32:59.013Z,14.70
2022-12-08T05:35:03.679Z,19.20
2022-12-08T05:37:06.580Z,15.27
2022-12-08T05:39:10.670Z,15.50
2022-12-08T05:41:16.295Z,22.83
2022-12-08T05:43:19.206Z,14.80
2022-12-08T05:45:22.145Z,18.70
2022-12-08T05:47:26.147Z,15.90
2022-12-08T05:49:29.319Z,16.87
2022-12-08T05:51:34.290Z,20.63
2022-12-08T05:53:37.359Z,13.50
2022-12-08T05:55:40.259Z,16.10
2022-12-08T05:57:43.133Z,14.93
2022-12-08T05:59:46.110Z,13.93
2022-12-08T06:01:50.606Z,14.90
2022-12-08T06:03:53.819Z,14.27
2022-12-08T06:05:56.719Z,18.00
2022-12-08T06:08:01.163Z,14.47
2022-12-08T06:10:05.150Z,13.30
2022-12-08T06:12:08.314Z,15.63
2022-12-08T06:14:12.410Z,12.87
2022-12-08T06:16:15.449Z,17.20
2022-12-08T06:18:18.376Z,14.10
2022-12-08T06:20:21.619Z,15.80
2022-12-08T06:22:24.494Z,14.53
2022-12-08T06:24:28.840Z,15.00
2022-12-08T06:26:31.750Z,15.70
2022-12-08T06:28:35.888Z,18.43
2022-12-08T06:30:39.562Z,15.63
2022-12-08T06:32:42.520Z,13.63
2022-12-08T06:34:45.750Z,19.57
2022-12-08T06:36:48.916Z,15.70
2022-12-08T06:38:51.832Z,22.60
2022-12-08T06:40:57.129Z,18.13
2022-12-08T06:43:00.653Z,21.57
2022-12-08T06:45:03.828Z,18.30
2022-12-08T06:47:06.760Z,19.53
2022-12-08T06:49:10.173Z,22.20
2022-12-08T06:51:16.858Z,19.33
2022-12-08T06:53:19.979Z,20.20
2022-12-08T06:55:50.955Z,19.87
2022-12-08T06:57:47.277Z,19.37
2022-12-08T06:59:50.181Z,18.90
2022-12-08T07:01:53.231Z,21.37
2022-12-08T07:03:58.535Z,19.53
2022-12-08T07:06:04.121Z,21.70
2022-12-08T07:08:09.549Z,20.13
2022-12-08T07:10:12.607Z,20.30
2022-12-08T07:12:15.616Z,18.63
2022-12-08T07:14:23.616Z,21.17
2022-12-08T07:16:26.727Z,18.07
2022-12-08T07:18:30.121Z,17.10
2022-12-08T07:20:33.404Z,18.33
2022-12-08T07:22:36.763Z,19.67
2022-12-08T07:24:39.799Z,18.13
2022-12-08T07:26:42.936Z,17.90
2022-12-08T07:28:45.934Z,15.20
2022-12-08T07:30:50.503Z,15.07
2022-12-08T07:32:53.534Z,15.80
2022-12-08T07:34:56.520Z,13.43
2022-12-08T07:36:59.488Z,15.30
2022-12-08T07:39:02.372Z,14.93
2022-12-08T07:41:05.699Z,15.73
2022-12-08T07:43:08.555Z,14.77
2022-12-08T07:45:12.247Z,15.47
2022-12-08T07:47:17.373Z,18.97
2022-12-08T07:49:20.344Z,17.10
2022-12-08T07:51:24.973Z,18.60
2022-12-08T07:53:27.983Z,17.33
2022-12-08T07:55:31.006Z,18.00
2022-12-08T07:57:34.183Z,21.70
2022-12-08T07:59:37.492Z,13.67
2022-12-08T08:01:40.436Z,13.87
2022-12-08T08:03:45.128Z,18.60
2022-12-08T08:05:49.621Z,17.40
2022-12-08T08:07:52.838Z,15.40
2022-12-08T08:09:56.129Z,17.00
2022-12-08T08:12:22.656Z,15.23
2022-12-08T08:14:22.504Z,17.40
2022-12-08T08:16:26.109Z,16.77
2022-12-08T08:18:29.404Z,15.67
2022-12-08T08:20:33.785Z,18.37
2022-12-08T08:22:37.270Z,20.20
2022-12-08T08:24:44.701Z,18.57
2022-12-08T08:26:48.167Z,15.70
2022-12-08T08:28:51.744Z,17.50
2022-12-08T08:30:54.888Z,17.03
2022-12-08T08:32:58.085Z,16.20
2022-12-08T08:35:01.333Z,17.73
2022-12-08T08:37:05.881Z,16.40
2022-12-08T08:39:09.101Z,17.20
2022-12-08T08:41:12.445Z,17.63
2022-12-08T08:43:34.333Z,15.60
2022-12-08T08:45:39.201Z,18.33
2022-12-08T08:47:42.383Z,14.70
2022-12-08T08:49:45.261Z,16.03
2022-12-08T08:51:48.348Z,16.60
2022-12-08T08:53:52.735Z,16.00
2022-12-08T08:55:55.960Z,16.27
2022-12-08T08:57:58.833Z,14.43
2022-12-08T09:00:02.329Z,14.27
2022-12-08T09:02:05.577Z,16.80
2022-12-08T09:04:08.553Z,15.17
2022-12-08T09:06:11.821Z,15.93
2022-12-08T09:08:15.161Z,15.70
2022-12-08T09:10:19.807Z,15.33
2022-12-08T09:12:22.820Z,17.43
2022-12-08T09:14:25.942Z,13.97
2022-12-08T09:16:29.185Z,13.97
2022-12-08T09:18:32.525Z,13.17
2022-12-08T09:20:36.584Z,15.00
2022-12-08T09:22:39.461Z,14.47
2022-12-08T09:24:44.491Z,12.50
2022-12-08T09:26:49.196Z,14.70
2022-12-08T09:28:52.790Z,12.93
2022-12-08T09:30:55.770Z,14.70
2022-12-08T09:32:58.732Z,14.30
2022-12-08T09:35:01.729Z,12.70
2022-12-08T09:37:04.913Z,13.87
2022-12-08T09:39:08.106Z,12.70
2022-12-08T09:41:16.745Z,12.43
2022-12-08T09:43:43.541Z,13.17
2022-12-08T09:45:46.556Z,11.90
2022-12-08T09:47:59.358Z,13.33
2022-12-08T09:50:07.537Z,11.43
2022-12-08T09:52:17.194Z,11.07
2022-12-08T09:54:24.079Z,12.13
2022-12-08T09:56:30.117Z,13.63
2022-12-08T09:58:46.111Z,15.40
2022-12-08T10:00:49.228Z,10.80
2022-12-08T10:02:52.435Z,17.77
2022-12-08T10:04:57.113Z,13.37
2022-12-08T10:07:05.919Z,14.83
2022-12-08T10:09:22.696Z,9.40
2022-12-08T10:11:30.883Z,19.20
2022-12-08T10:13:39.410Z,11.13
2022-12-08T10:15:45.777Z,9.87
2022-12-08T10:17:52.023Z,9.40
2022-12-08T10:19:58.921Z,9.40
2022-12-08T10:22:02.568Z,8.97
2022-12-08T10:24:10.902Z,10.50
2022-12-08T10:26:16.037Z,8.73
2022-12-08T10:28:19.046Z,9.73
2022-12-08T10:30:23.570Z,10.17
2022-12-08T10:32:30.609Z,9.13
2022-12-08T10:34:33.492Z,9.10
2022-12-08T10:36:47.322Z,9.40
2022-12-08T10:38:51.826Z,10.40
2022-12-08T10:41:00.333Z,10.77
2022-12-08T10:43:05.987Z,9.77
2022-12-08T10:45:21.882Z,11.40
2022-12-08T10:47:28.158Z,10.57
2022-12-08T10:49:35.448Z,14.10
2022-12-08T10:51:40.771Z,10.37
2022-12-08T10:53:47.100Z,10.53
2022-12-08T10:55:52.860Z,11.20
2022-12-08T10:57:55.874Z,12.70
2022-12-08T10:59:58.863Z,12.30
2022-12-08T11:02:02.250Z,11.03
2022-12-08T11:04:13.603Z,11.63
2022-12-08T11:06:19.349Z,12.77
2022-12-08T11:08:22.363Z,10.07
2022-12-08T11:10:32.545Z,9.30
2022-12-08T11:12:36.688Z,9.57
2022-12-08T11:14:49.427Z,9.77
2022-12-08T11:16:54.237Z,9.53
2022-12-08T11:18:58.954Z,9.03
2022-12-08T11:21:11.579Z,9.47
2022-12-08T11:23:22.860Z,8.83
2022-12-08T11:25:26.970Z,9.83
2022-12-08T11:27:30.478Z,10.50
2022-12-08T11:29:34.705Z,9.63
2022-12-08T11:31:43.761Z,10.13
2022-12-08T11:33:47.673Z,9.73
2022-12-08T11:35:53.141Z,9.73
2022-12-08T11:38:19.774Z,11.53
2022-12-08T11:40:27.921Z,11.90
2022-12-08T11:42:34.235Z,12.10
2022-12-08T11:44:39.669Z,10.90
2022-12-08T11:46:47.695Z,14.60
2022-12-08T11:48:54.401Z,12.10
2022-12-08T11:51:02.659Z,12.10
2022-12-08T11:53:10.004Z,13.77
2022-12-08T11:55:25.871Z,11.80
2022-12-08T11:57:30.455Z,11.37
2022-12-08T11:59:35.783Z,10.60
2022-12-08T12:01:42.535Z,12.70
2022-12-08T12:03:48.987Z,13.37
2022-12-08T12:06:18.599Z,13.23
2022-12-08T12:08:41.441Z,9.93
2022-12-08T12:10:56.296Z,10.47
2022-12-08T12:13:10.360Z,14.17
2022-12-08T12:15:52.681Z,13.33
2022-12-08T12:17:58.859Z,10.37
2022-12-08T12:20:06.111Z,10.73
2022-12-08T12:22:15.459Z,13.10
2022-12-08T12:24:26.056Z,13.60
2022-12-08T12:26:35.189Z,13.23
2022-12-08T12:28:43.378Z,11.33
2022-12-08T12:30:57.339Z,13.73
2022-12-08T12:33:02.076Z,9.73
2022-12-08T12:35:06.022Z,10.77
2022-12-08T12:37:12.195Z,11.97
2022-12-08T12:39:17.143Z,10.63
2022-12-08T12:41:25.942Z,12.50
2022-12-08T12:43:33.626Z,12.80
2022-12-08T12:45:43.378Z,10.57
2022-12-08T12:47:54.338Z,12.10
2022-12-08T12:50:09.746Z,10.50
2022-12-08T12:52:38.795Z,11.20
2022-12-08T12:54:43.798Z,11.17
2022-12-08T12:56:55.968Z,9.10
2022-12-08T12:58:58.876Z,9.07
2022-12-08T13:01:37.076Z,10.70
2022-12-08T13:03:42.026Z,9.67
2022-12-08T13:05:50.283Z,8.23
2022-12-08T13:07:56.141Z,7.70
2022-12-08T13:10:02.504Z,8.40
2022-12-08T13:12:12.155Z,6.97
2022-12-08T13:14:28.741Z,7.23
2022-12-08T13:16:34.619Z,6.27
2022-12-08T13:18:39.421Z,6.63
2022-12-08T13:20:43.779Z,7.47
2022-12-08T13:22:50.103Z,8.33
2022-12-08T13:24:53.652Z,7.03
2022-12-08T13:27:35.587Z,9.67
2022-12-08T13:29:41.152Z,6.50
2022-12-08T13:31:50.582Z,6.40
2022-12-08T13:33:54.259Z,7.40
2022-12-08T13:36:10.245Z,9.00
2022-12-08T13:38:16.244Z,8.23
2022-12-08T13:40:22.627Z,7.70
2022-12-08T13:42:31.166Z,10.20
2022-12-08T13:45:18.423Z,8.90
2022-12-08T13:47:33.777Z,9.50
2022-12-08T13:59:28.122Z,13.00
2022-12-08T14:01:31.364Z,9.30
2022-12-08T14:04:04.655Z,11.27
2022-12-08T14:06:15.374Z,10.53
2022-12-08T14:08:57.104Z,9.90
2022-12-08T14:10:45.377Z,10.23
2022-12-08T14:12:49.885Z,10.70
2022-12-08T14:15:03.367Z,11.93
2022-12-08T14:17:09.398Z,13.97
2022-12-08T14:19:19.337Z,12.87
2022-12-08T14:21:22.641Z,12.67
2022-12-08T14:23:25.892Z,11.70
2022-12-08T14:25:29.591Z,14.00
2022-12-08T14:27:35.211Z,14.43
2022-12-08T14:29:43.991Z,15.37
2022-12-08T14:31:47.354Z,18.67
2022-12-08T14:33:54.859Z,17.03
2022-12-08T14:36:01.367Z,24.10
2022-12-08T14:38:05.875Z,15.17
2022-12-08T14:40:22.755Z,17.93
2022-12-08T14:42:28.001Z,16.20
2022-12-08T14:44:33.476Z,15.13
2022-12-08T14:46:36.697Z,16.87
2022-12-08T14:48:44.956Z,19.67
2022-12-08T14:50:58.244Z,17.57
2022-12-08T14:53:02.699Z,18.23
2022-12-08T14:55:08.646Z,20.60
2022-12-08T14:57:12.667Z,18.90
2022-12-08T14:59:20.467Z,19.10
2022-12-08T15:01:24.491Z,19.80
2022-12-08T15:03:28.889Z,15.83
2022-12-08T15:05:36.638Z,15.17
2022-12-08T15:07:48.962Z,17.63
2022-12-08T15:10:10.790Z,20.33
2022-12-08T15:12:27.359Z,20.40
2022-12-08T15:14:33.048Z,18.77
2022-12-08T15:16:40.934Z,17.87
2022-12-08T15:18:43.896Z,19.57
2022-12-08T15:20:48.584Z,21.27
2022-12-08T15:22:51.602Z,21.90
2022-12-08T15:24:56.357Z,21.87
2022-12-08T15:26:59.424Z,21.10
2022-12-08T15:29:11.584Z,18.30
2022-12-08T15:31:15.502Z,17.83
2022-12-08T15:33:18.803Z,22.30
2022-12-08T15:35:22.592Z,22.17
2022-12-08T15:37:28.188Z,17.47
2022-12-08T15:39:36.547Z,19.53
2022-12-08T15:41:40.789Z,17.73
2022-12-08T15:43:43.884Z,15.53
2022-12-08T15:45:57.891Z,19.10
2022-12-08T15:48:04.354Z,27.43
2022-12-08T15:50:09.199Z,19.37
2022-12-08T15:52:14.842Z,15.47
2022-12-08T15:54:17.778Z,17.37
2022-12-08T15:56:28.655Z,16.83
2022-12-08T16:00:57.234Z,18.30
2022-12-08T16:03:22.950Z,16.67
2022-12-08T16:05:44.236Z,17.63
2022-12-08T16:07:53.106Z,15.40
2022-12-08T16:10:00.890Z,15.90
2022-12-08T16:12:21.673Z,14.13
2022-12-08T16:15:23.811Z,14.70
2022-12-08T16:16:50.871Z,19.30
2022-12-08T16:18:53.760Z,20.60
2022-12-08T16:23:41.610Z,16.90
2022-12-08T16:26:16.443Z,27.40
2022-12-08T16:28:45.207Z,18.07
2022-12-08T16:30:34.786Z,16.70
2022-12-08T16:32:46.520Z,20.10
2022-12-08T16:34:50.139Z,21.30
2022-12-08T16:36:53.354Z,18.37
2022-12-08T16:38:56.355Z,21.17
2022-12-08T16:41:17.227Z,19.83
2022-12-08T16:43:21.860Z,20.50
2022-12-08T16:45:26.963Z,18.03
2022-12-08T16:47:33.388Z,22.10
2022-12-08T16:49:39.213Z,24.17
2022-12-08T16:51:47.840Z,22.90
2022-12-08T16:53:51.211Z,22.77
2022-12-08T16:55:54.110Z,29.90
2022-12-08T16:57:57.489Z,25.57
2022-12-08T17:00:03.809Z,28.10
2022-12-08T17:02:06.915Z,22.70
2022-12-08T17:06:34.302Z,30.50
2022-12-08T17:08:37.273Z,32.23
2022-12-08T17:10:41.627Z,30.50
2022-12-08T17:12:44.710Z,34.93
2022-12-08T17:14:48.032Z,29.87
2022-12-08T17:16:50.942Z,30.00
2022-12-08T17:18:54.735Z,30.10
2022-12-08T17:20:58.977Z,29.00
2022-12-08T17:23:01.864Z,27.10
2022-12-08T17:25:05.374Z,30.90
2022-12-08T17:27:08.241Z,28.47
2022-12-08T17:29:11.137Z,29.20
2022-12-08T17:31:16.026Z,28.90
2022-12-08T17:33:23.759Z,33.50
2022-12-08T17:35:29.648Z,33.47
2022-12-08T17:37:34.116Z,34.50
2022-12-08T17:39:37.998Z,36.40
2022-12-08T17:41:41.222Z,34.57
2022-12-08T17:43:44.117Z,32.00
2022-12-08T17:45:50.303Z,37.73
2022-12-08T17:47:53.416Z,36.17
2022-12-08T17:49:56.946Z,33.60
2022-12-08T17:52:01.380Z,33.93
2022-12-08T17:54:06.284Z,36.00
2022-12-08T17:56:18.233Z,38.60
2022-12-08T17:58:24.723Z,40.00
2022-12-08T18:00:27.811Z,39.57
2022-12-08T18:02:33.650Z,32.13
2022-12-08T18:04:36.667Z,43.33
2022-12-08T18:06:40.998Z,34.80
2022-12-08T18:08:44.242Z,37.00
2022-12-08T18:10:48.810Z,33.50
2022-12-08T18:12:51.706Z,39.97
2022-12-08T18:14:54.630Z,33.33
2022-12-08T18:16:57.968Z,39.77
2022-12-08T18:19:00.889Z,30.27
2022-12-08T18:21:03.829Z,36.53
2022-12-08T18:23:06.904Z,36.37
2022-12-08T18:25:11.146Z,34.77
2022-12-08T18:27:15.459Z,32.77
2022-12-08T18:29:19.938Z,42.57
2022-12-08T18:31:24.041Z,39.33
2022-12-08T18:33:27.284Z,33.13
2022-12-08T18:35:30.182Z,37.43
2022-12-08T18:37:33.192Z,35.40
2022-12-08T18:39:36.499Z,42.00
2022-12-08T18:41:39.668Z,43.37
2022-12-08T18:43:44.188Z,31.17
2022-12-08T18:45:47.246Z,31.00
2022-12-08T18:47:51.911Z,35.20
2022-12-08T18:49:56.569Z,34.10
2022-12-08T18:51:59.497Z,34.53
2022-12-08T18:54:02.601Z,35.67
2022-12-08T18:56:06.428Z,32.00
2022-12-08T18:58:10.866Z,29.70
2022-12-08T19:00:17.802Z,43.13
2022-12-08T19:02:21.036Z,40.50
2022-12-08T19:04:28.752Z,37.70
2022-12-08T19:06:32.800Z,36.17
2022-12-08T19:08:35.869Z,29.23
2022-12-08T19:10:39.265Z,38.83
2022-12-08T19:12:43.209Z,38.63
2022-12-08T19:14:46.079Z,38.00
2022-12-08T19:16:53.069Z,32.37
2022-12-08T19:18:55.987Z,32.97
2022-12-08T19:20:59.612Z,31.83
2022-12-08T19:23:02.490Z,41.13
2022-12-08T19:25:06.189Z,41.63
2022-12-08T19:27:10.946Z,35.33
2022-12-08T19:29:14.233Z,32.23
2022-12-08T19:31:17.568Z,33.53
2022-12-08T19:33:21.952Z,35.37
2022-12-08T19:35:24.946Z,46.97
2022-12-08T19:37:27.884Z,36.27
2022-12-08T19:39:48.707Z,51.13
2022-12-08T19:42:09.580Z,38.50
2022-12-08T19:44:36.012Z,34.87
2022-12-08T19:46:40.474Z,35.43
2022-12-08T19:48:45.516Z,32.23
2022-12-08T19:50:48.393Z,39.97
2022-12-08T19:52:54.048Z,31.60
2022-12-08T19:54:57.762Z,35.50
2022-12-08T19:57:00.739Z,29.90
2022-12-08T19:59:03.679Z,36.90
2022-12-08T20:01:06.811Z,31.50
2022-12-08T20:03:14.022Z,37.33
2022-12-08T20:05:18.380Z,34.00
2022-12-08T20:07:21.521Z,37.43
2022-12-08T20:09:25.407Z,28.90
2022-12-08T20:11:28.305Z,31.73
2022-12-08T20:13:45.581Z,33.93
2022-12-08T20:15:48.635Z,34.47
2022-12-08T20:17:54.343Z,33.30
2022-12-08T20:19:57.256Z,32.40
2022-12-08T20:22:01.766Z,32.07
2022-12-08T20:24:05.523Z,32.83
2022-12-08T20:26:11.941Z,28.77
2022-12-08T20:28:20.075Z,35.33
2022-12-08T20:30:23.088Z,35.03
2022-12-08T20:32:25.972Z,33.30
2022-12-08T20:34:30.416Z,34.90
2022-12-08T20:36:33.452Z,28.67
2022-12-08T20:38:37.770Z,34.07
2022-12-08T20:40:47.425Z,36.87
2022-12-08T20:42:54.726Z,29.40
2022-12-08T20:44:57.628Z,35.53
2022-12-08T20:47:00.640Z,30.73
2022-12-08T20:49:04.310Z,33.63
2022-12-08T20:51:10.385Z,41.10
2022-12-08T20:53:13.796Z,33.73
2022-12-08T20:55:20.678Z,33.57
2022-12-08T20:57:23.585Z,34.40
2022-12-08T20:59:26.984Z,35.77
2022-12-08T21:01:30.216Z,33.53
2022-12-08T21:03:36.345Z,34.60
2022-12-08T21:05:39.872Z,32.83
2022-12-08T21:07:43.280Z,30.10
2022-12-08T21:09:46.399Z,32.87
2022-12-08T21:11:51.032Z,27.20
2022-12-08T21:13:54.056Z,33.97
2022-12-08T21:15:57.425Z,27.33
2022-12-08T21:18:01.046Z,31.20
2022-12-08T21:20:06.869Z,31.57
2022-12-08T21:22:10.189Z,26.93
2022-12-08T21:24:13.270Z,26.20
2022-12-08T21:26:17.511Z,31.07
2022-12-08T21:28:23.791Z,32.83
2022-12-08T21:30:30.142Z,27.33
2022-12-08T21:32:39.036Z,25.80
2022-12-08T21:34:44.251Z,32.00
2022-12-08T21:36:47.276Z,29.77
2022-12-08T21:38:51.656Z,36.87
2022-12-08T21:40:54.579Z,29.73
2022-12-08T21:42:56.651Z,27.00
2022-12-08T21:45:00.975Z,26.80
2022-12-08T21:47:04.781Z,28.90
2022-12-08T21:49:08.965Z,29.03
2022-12-08T21:51:11.922Z,28.00
2022-12-08T21:53:15.095Z,29.00
2022-12-08T21:55:20.344Z,30.93
2022-12-08T21:57:24.539Z,29.13
2022-12-08T21:59:27.856Z,27.07
2022-12-08T22:01:33.309Z,26.80
2022-12-08T22:03:37.002Z,30.50
2022-12-08T22:05:40.216Z,28.60
2022-12-08T22:07:43.645Z,26.03
2022-12-08T22:09:47.340Z,32.90
2022-12-08T22:11:50.520Z,32.03
2022-12-08T22:13:54.822Z,31.03
2022-12-08T22:15:58.806Z,36.97
2022-12-08T22:18:03.737Z,31.30
2022-12-08T22:20:09.469Z,31.13
2022-12-08T22:22:15.171Z,32.60
2022-12-08T22:24:18.289Z,28.87
2022-12-08T22:26:21.196Z,31.27
2022-12-08T22:28:24.611Z,26.20
2022-12-08T22:30:28.032Z,28.87
2022-12-08T22:32:30.999Z,29.93
2022-12-08T22:34:35.590Z,31.23
2022-12-08T22:36:38.464Z,32.00
2022-12-08T22:38:41.507Z,29.97
2022-12-08T22:40:44.526Z,34.03
2022-12-08T22:42:47.744Z,29.43
2022-12-08T22:44:50.670Z,35.97
2022-12-08T22:46:53.678Z,28.63
2022-12-08T22:48:56.687Z,34.53
2022-12-08T22:51:01.520Z,34.90
2022-12-08T22:53:04.877Z,32.80
2022-12-08T22:55:08.871Z,33.30
2022-12-08T22:57:11.999Z,35.60
2022-12-08T22:59:15.099Z,33.00
2022-12-08T23:01:28.204Z,31.03
2022-12-08T23:03:31.874Z,28.30
2022-12-08T23:05:35.454Z,35.97
2022-12-08T23:07:42.987Z,37.63
2022-12-08T23:09:48.785Z,33.13
2022-12-08T23:11:52.096Z,36.33
2022-12-08T23:13:56.254Z,32.80
2022-12-08T23:15:59.245Z,35.17
2022-12-08T23:18:02.266Z,31.63
2022-12-08T23:20:06.280Z,32.77
2022-12-08T23:22:10.667Z,34.37
2022-12-08T23:24:15.474Z,36.20
2022-12-08T23:26:25.157Z,31.00
2022-12-08T23:28:28.490Z,36.67
2022-12-08T23:30:31.621Z,34.57
2022-12-08T23:32:34.719Z,34.90
2022-12-08T23:34:38.467Z,35.00
2022-12-08T23:36:42.878Z,39.73
2022-12-08T23:38:45.919Z,44.63
2022-12-08T23:40:50.569Z,37.10
2022-12-08T23:42:53.967Z,47.30
2022-12-08T23:44:57.095Z,34.17
2022-12-08T23:47:00.233Z,34.40
2022-12-08T23:49:03.474Z,37.90
2022-12-08T23:51:06.875Z,33.37
2022-12-08T23:53:10.032Z,44.87
2022-12-08T23:55:13.112Z,35.60
2022-12-08T23:57:17.392Z,42.13
2022-12-08T23:59:20.404Z,34.10
